Time;durP1;ratioP1;P1;durP2;ratioP2;P2;SDS_P1;SDS_P2;PMS_P1;PMS_P2;Temp;Humidity;BMP_temperature;BMP_pressure;BME280_temperature;BME280_humidity;BME280_pressure;Samples;Min_cycle;Max_cycle;Signal;HPM_P1;HPM_P2
2022/01/17 00:02:04;;;;;;;19.05;12.30;;;4.30;74.40;;;3.33;59.90;95598.81;5036313;28;20273;-86
2022/01/17 00:04:31;;;;;;;19.17;11.85;;;4.30;74.30;;;3.37;59.83;95597.63;5054196;28;20227;-85
2022/01/17 00:07:02;;;;;;;19.60;11.32;;;4.30;74.30;;;3.34;60.18;95603.06;5036884;28;20207;-87
2022/01/17 00:09:30;;;;;;;20.77;11.60;;;4.30;74.30;;;3.34;59.72;95593.53;5052080;28;20712;-87
2022/01/17 00:11:57;;;;;;;20.63;11.50;;;4.40;74.30;;;3.39;59.82;95603.47;5035916;28;20277;-87
2022/01/17 00:14:32;;;;;;;17.77;11.57;;;4.30;74.30;;;3.40;60.13;95615.50;5036284;28;20196;-87
2022/01/17 00:17:38;;;;;;;21.95;12.55;;;4.40;75.10;;;3.35;60.12;95615.09;5033896;28;20650;-86
2022/01/17 00:19:56;;;;;;;19.58;11.88;;;4.40;74.30;;;3.35;60.35;95579.59;5037432;28;20314;-86
2022/01/17 00:22:24;;;;;;;21.58;12.20;;;4.30;74.30;;;3.32;60.07;95572.09;5020725;28;20616;-86
2022/01/17 00:24:51;;;;;;;19.35;11.75;;;4.40;74.40;;;3.38;60.18;95588.06;5035891;28;20192;-87
2022/01/17 00:27:19;;;;;;;19.67;12.20;;;4.40;74.50;;;3.39;60.38;95584.53;5036719;28;20546;-86
2022/01/17 00:29:46;;;;;;;17.67;11.45;;;4.30;74.40;;;3.41;60.71;95583.44;5051909;28;20219;-87
2022/01/17 00:32:14;;;;;;;22.17;12.45;;;4.40;74.50;;;3.38;60.36;95593.25;5023468;28;20200;-87
2022/01/17 00:34:42;;;;;;;20.30;12.55;;;4.30;74.50;;;3.41;60.18;95580.03;5035974;28;20654;-87
2022/01/17 00:37:10;;;;;;;20.70;12.35;;;4.40;74.60;;;3.39;60.21;95574.97;5033459;28;20199;-87
2022/01/17 00:39:37;;;;;;;19.45;12.23;;;4.40;74.60;;;3.43;59.82;95560.81;5019684;28;20196;-87
2022/01/17 00:42:05;;;;;;;21.27;12.18;;;4.40;74.60;;;3.44;60.28;95566.78;5036752;28;20646;-86
2022/01/17 00:44:32;;;;;;;20.30;11.48;;;4.40;74.50;;;3.42;59.89;95553.13;5053484;28;20208;-86
2022/01/17 00:47:00;;;;;;;23.38;13.13;;;4.40;74.50;;;3.46;59.93;95576.09;5053186;28;20739;-87
2022/01/17 00:49:27;;;;;;;18.80;11.77;;;4.40;74.60;;;3.43;60.16;95562.56;5036073;28;20191;-85
2022/01/17 00:51:55;;;;;;;20.38;12.00;;;4.40;74.60;;;3.43;60.21;95549.59;5036514;28;20248;-87
2022/01/17 00:54:22;;;;;;;18.88;12.30;;;4.50;74.60;;;3.47;60.32;95563.97;5036216;28;20253;-86
2022/01/17 00:56:49;;;;;;;19.20;11.65;;;4.40;74.50;;;3.47;59.78;95564.75;5020332;28;20258;-86
2022/01/17 00:59:17;;;;;;;17.70;11.02;;;4.40;74.40;;;3.53;60.20;95564.22;5036724;28;20253;-86
2022/01/17 01:01:45;;;;;;;19.63;11.88;;;4.40;74.40;;;3.53;60.38;95579.00;5035882;28;20311;-87
2022/01/17 01:04:13;;;;;;;18.25;10.95;;;4.50;74.50;;;3.53;60.28;95577.19;5049530;28;20211;-86
2022/01/17 01:06:40;;;;;;;18.08;10.75;;;4.50;74.40;;;3.56;59.88;95589.09;5049500;28;20331;-87
2022/01/17 01:09:07;;;;;;;17.27;9.85;;;4.50;74.50;;;3.60;59.90;95571.50;5049814;28;20200;-86
2022/01/17 01:11:35;;;;;;;19.58;11.25;;;4.50;74.40;;;3.53;59.66;95566.81;5032161;28;20216;-86
2022/01/17 01:14:04;;;;;;;17.73;10.98;;;4.50;74.30;;;3.61;60.04;95565.34;5034967;28;20287;-86
2022/01/17 01:16:34;;;;;;;17.02;10.18;;;4.50;74.30;;;3.59;59.80;95559.47;5035557;28;20254;-86
2022/01/17 01:19:27;;;;;;;16.95;10.25;;;4.50;74.30;;;3.63;60.00;95566.84;5030456;28;20215;-86
2022/01/17 01:30:01;;;;;;;16.83;10.65;;;4.60;74.20;;;3.58;59.65;95516.34;5065041;28;20216;-86
2022/01/17 01:32:38;;;;;;;20.70;11.20;;;4.60;74.20;;;3.59;59.48;95547.34;5035630;28;20258;-85
2022/01/17 01:35:10;;;;;;;17.42;9.77;;;4.60;74.20;;;3.66;59.57;95534.63;5029538;28;20253;-86
2022/01/17 01:37:37;;;;;;;16.77;10.18;;;4.60;74.10;;;3.62;59.44;95531.50;5052398;28;20258;-86
2022/01/17 01:40:06;;;;;;;18.00;10.45;;;4.60;74.00;;;3.62;59.36;95526.31;5031866;28;20216;-87
2022/01/17 01:42:33;;;;;;;15.77;10.70;;;4.60;74.00;;;3.58;59.61;95519.75;5030904;28;20204;-86
2022/01/17 01:45:02;;;;;;;13.90;9.40;;;4.60;74.00;;;3.56;59.76;95536.41;5029928;28;20207;-86
2022/01/17 01:47:29;;;;;;;13.00;8.77;;;4.60;74.00;;;3.59;59.35;95528.34;5043706;28;20243;-87
2022/01/17 01:49:57;;;;;;;14.13;9.40;;;4.60;74.10;;;3.58;59.68;95519.75;5019033;28;20311;-86
2022/01/17 01:52:24;;;;;;;14.10;9.15;;;4.60;74.10;;;3.60;59.32;95510.06;5035939;28;20196;-86
2022/01/17 01:54:52;;;;;;;12.93;8.88;;;4.60;74.00;;;3.63;59.35;95508.97;5068702;28;20236;-86
2022/01/17 01:57:20;;;;;;;15.00;8.95;;;4.60;74.00;;;3.62;59.64;95489.97;5027012;28;20265;-86
2022/01/17 01:59:47;;;;;;;12.02;8.63;;;4.60;74.10;;;3.69;59.45;95504.06;5034578;28;20808;-86
2022/01/17 02:02:15;;;;;;;12.15;8.57;;;4.60;74.00;;;3.66;59.25;95495.72;5035758;28;20199;-86
2022/01/17 02:04:43;;;;;;;12.23;7.93;;;4.60;73.90;;;3.73;59.17;95486.44;5036096;28;20257;-86
2022/01/17 02:07:12;;;;;;;9.70;7.28;;;4.60;73.90;;;3.79;59.04;95496.28;5032764;28;20224;-86
2022/01/17 02:09:40;;;;;;;9.43;6.82;;;4.70;73.90;;;3.75;58.80;95466.38;5052010;28;20596;-86
2022/01/17 02:12:08;;;;;;;9.43;7.45;;;4.70;73.90;;;3.81;59.17;95494.38;5035666;28;20207;-86
2022/01/17 02:14:35;;;;;;;10.10;7.40;;;4.70;73.80;;;3.85;58.66;95469.00;5035624;28;20192;-86
2022/01/17 02:17:04;;;;;;;9.38;7.00;;;4.70;73.70;;;3.87;58.57;95472.28;5034612;28;20286;-86
2022/01/17 02:19:33;;;;;;;9.27;7.10;;;4.80;73.70;;;3.86;58.75;95460.25;5030973;28;20196;-86
2022/01/17 02:22:02;;;;;;;9.10;6.82;;;4.80;73.60;;;3.83;58.79;95442.34;5064601;28;20253;-85
2022/01/17 02:24:30;;;;;;;10.00;6.75;;;4.70;73.50;;;3.85;58.61;95437.84;5065185;28;20196;-85
2022/01/17 02:26:57;;;;;;;10.00;6.95;;;4.80;73.50;;;3.83;58.55;95447.53;5054773;28;20286;-85
2022/01/17 02:29:26;;;;;;;10.02;6.93;;;4.80;73.50;;;3.85;58.47;95440.44;5033692;28;20239;-86
2022/01/17 02:31:53;;;;;;;8.65;6.53;;;4.80;73.50;;;3.86;58.64;95439.50;5045426;28;20215;-86
2022/01/17 02:34:20;;;;;;;7.38;5.80;;;4.80;73.50;;;3.88;58.37;95440.16;5034689;28;20658;-86
2022/01/17 02:36:48;;;;;;;8.95;6.38;;;4.80;73.40;;;3.84;58.23;95439.63;5034713;28;20716;-85
2022/01/17 02:39:16;;;;;;;8.30;6.57;;;4.90;73.40;;;3.83;58.42;95431.97;5052065;28;20188;-86
2022/01/17 02:41:49;;;;;;;6.85;5.85;;;4.80;73.30;;;3.90;58.35;95453.00;5022878;28;20240;-86
2022/01/17 02:44:17;;;;;;;7.97;6.18;;;4.80;73.30;;;3.87;58.24;95435.94;5034084;28;20203;-85
2022/01/17 02:46:44;;;;;;;6.97;5.90;;;4.80;73.30;;;3.96;58.04;95444.69;5026959;28;20274;-86
2022/01/17 02:49:11;;;;;;;7.13;5.68;;;4.80;73.30;;;3.97;58.11;95446.31;5047398;28;20212;-86
2022/01/17 02:51:40;;;;;;;7.30;5.63;;;4.80;73.20;;;3.95;57.82;95425.66;5023252;28;20208;-86
2022/01/17 02:54:07;;;;;;;7.53;5.55;;;4.80;73.20;;;4.04;57.43;95429.25;5051690;28;20615;-86
2022/01/17 02:56:35;;;;;;;7.90;5.95;;;4.90;73.10;;;4.03;57.75;95431.94;5036251;28;20227;-86
2022/01/17 02:59:02;;;;;;;7.90;5.90;;;4.90;73.10;;;4.03;57.61;95445.78;5037548;28;20196;-86
2022/01/17 03:01:30;;;;;;;7.20;6.20;;;4.90;72.90;;;4.10;57.42;95417.47;5052340;28;20243;-87
2022/01/17 03:03:59;;;;;;;7.93;5.63;;;5.00;73.00;;;4.09;57.14;95471.19;5038721;28;20238;-86
2022/01/17 03:06:27;;;;;;;7.43;6.05;;;5.00;72.80;;;4.13;57.21;95425.00;5038294;28;20293;-85
2022/01/17 03:08:55;;;;;;;7.15;5.82;;;5.00;72.80;;;4.15;57.29;95436.03;5038163;28;20254;-86
2022/01/17 03:11:26;;;;;;;7.50;5.45;;;5.00;72.80;;;4.18;57.32;95442.75;5017974;28;20221;-85
2022/01/17 03:13:55;;;;;;;7.60;5.88;;;5.00;72.60;;;4.19;57.01;95429.63;5029713;28;20255;-86
2022/01/17 03:16:29;;;;;;;6.88;5.50;;;5.00;72.50;;;4.23;57.27;95443.94;5031940;28;20243;-85
2022/01/17 03:18:57;;;;;;;7.80;6.05;;;5.00;72.40;;;4.23;57.19;95427.56;5039087;28;20249;-85
2022/01/17 03:21:27;;;;;;;7.80;5.78;;;5.10;72.50;;;4.21;57.31;95434.66;5020225;28;20220;-86
2022/01/17 03:23:56;;;;;;;7.97;5.53;;;5.10;72.60;;;4.24;57.30;95424.03;5055454;28;20617;-86
2022/01/17 03:26:25;;;;;;;8.38;6.07;;;5.10;72.50;;;4.19;57.21;95437.41;5038467;28;20321;-86
2022/01/17 03:28:52;;;;;;;6.93;5.53;;;5.20;72.60;;;4.26;56.95;95435.06;5049598;28;20242;-86
2022/01/17 03:31:19;;;;;;;7.55;5.68;;;5.10;72.50;;;4.25;57.36;95428.25;5054363;28;20227;-87
2022/01/17 03:33:47;;;;;;;8.23;5.80;;;5.10;72.50;;;4.22;57.66;95431.94;5038467;28;20263;-86
2022/01/17 03:36:14;;;;;;;7.50;5.95;;;5.20;72.50;;;4.24;57.47;95429.22;5038349;28;20224;-87
2022/01/17 03:38:42;;;;;;;7.10;5.78;;;5.10;72.50;;;4.22;57.66;95446.69;5034170;28;20659;-86
2022/01/17 03:41:13;;;;;;;7.05;5.68;;;5.10;72.50;;;4.20;57.55;95459.00;5034989;28;20221;-86
2022/01/17 03:43:40;;;;;;;8.05;6.50;;;5.10;73.50;;;4.15;57.77;95449.00;5035860;28;20204;-86
2022/01/17 03:46:08;;;;;;;8.65;6.30;;;5.10;72.70;;;4.20;57.89;95459.00;5037567;28;20228;-86
2022/01/17 03:48:36;;;;;;;8.85;6.22;;;5.10;72.80;;;4.15;57.83;95438.63;5032288;28;20562;-86
2022/01/17 03:51:05;;;;;;;8.13;6.20;;;5.10;72.70;;;4.16;58.07;95435.06;5036762;28;20231;-86
2022/01/17 03:53:32;;;;;;;7.93;6.10;;;5.20;72.80;;;4.16;58.04;95432.47;5037806;28;20204;-87
2022/01/17 03:56:00;;;;;;;9.05;6.50;;;5.00;72.80;;;4.19;57.95;95468.56;5036288;28;20278;-86
2022/01/17 03:58:28;;;;;;;9.35;6.47;;;5.10;72.80;;;4.15;57.93;95430.84;5022001;28;20211;-85
2022/01/17 04:00:58;;;;;;;8.50;6.45;;;5.10;72.60;;;4.13;58.01;95443.16;5020590;28;20591;-85
2022/01/17 04:03:26;;;;;;;9.35;6.15;;;5.10;72.80;;;4.13;58.27;95431.00;5034043;28;20292;-86
2022/01/17 04:05:55;;;;;;;9.88;6.72;;;5.10;72.80;;;4.13;58.12;95450.94;5050706;28;20229;-85
2022/01/17 04:08:23;;;;;;;8.93;6.28;;;5.10;72.90;;;4.12;58.27;95467.47;5065066;28;20204;-86
2022/01/17 04:10:50;;;;;;;9.50;6.80;;;5.10;73.00;;;4.10;57.98;95444.25;5037229;28;20240;-87
2022/01/17 04:13:18;;;;;;;9.55;6.95;;;5.10;73.00;;;4.12;57.95;95450.13;5050348;28;20207;-86
2022/01/17 04:15:46;;;;;;;9.00;6.43;;;5.00;73.00;;;4.11;57.99;95438.13;5034164;28;20217;-86
2022/01/17 04:18:15;;;;;;;10.73;6.95;;;5.10;73.10;;;4.16;58.44;95433.31;5035233;28;20192;-87
2022/01/17 04:20:43;;;;;;;9.52;7.38;;;5.10;73.20;;;4.15;57.89;95444.66;5035516;28;20219;-87
2022/01/17 04:23:12;;;;;;;9.15;6.57;;;5.10;73.20;;;4.13;58.29;95445.75;5021936;28;20204;-86
2022/01/17 04:25:42;;;;;;;9.18;7.05;;;5.10;73.20;;;4.13;58.42;95443.97;5036711;28;20239;-87
2022/01/17 04:28:12;;;;;;;10.40;7.22;;;5.00;73.20;;;4.11;58.44;95434.69;5034239;28;20204;-86
2022/01/17 04:30:42;;;;;;;11.05;7.50;;;5.10;73.40;;;4.12;58.41;95423.34;5019449;28;20216;-86
2022/01/17 04:33:10;;;;;;;9.27;7.22;;;5.10;73.40;;;4.09;58.35;95408.88;5037351;28;20219;-85
2022/01/17 04:35:38;;;;;;;9.85;7.07;;;5.00;73.40;;;4.14;58.36;95443.00;5053293;28;20224;-86
2022/01/17 04:38:09;;;;;;;10.02;7.22;;;5.00;73.40;;;4.13;58.58;95423.19;5035683;28;20207;-86
2022/01/17 04:40:39;;;;;;;12.00;7.55;;;5.10;73.40;;;4.14;58.37;95424.84;5024573;28;20315;-86
2022/01/17 04:43:43;;;;;;;9.85;7.63;;;5.10;73.50;;;4.16;58.21;95433.31;5036451;28;20203;-86
2022/01/17 04:46:12;;;;;;;9.45;7.35;;;5.10;73.50;;;4.17;58.53;95460.09;5056934;28;20231;-86
2022/01/17 04:48:39;;;;;;;10.85;7.68;;;5.10;73.50;;;4.14;58.61;95426.63;5032831;28;20231;-86
2022/01/17 04:51:08;;;;;;;10.63;7.35;;;5.10;73.50;;;4.10;58.76;95420.06;5037357;28;20221;-87
2022/01/17 04:53:35;;;;;;;12.43;8.23;;;5.10;73.60;;;4.14;58.81;95473.38;5036466;28;20195;-86
2022/01/17 04:56:03;;;;;;;11.18;8.10;;;5.00;73.50;;;4.09;59.01;95434.00;5034150;28;20270;-86
2022/01/17 04:58:31;;;;;;;12.15;8.20;;;5.10;73.60;;;4.08;59.35;95428.00;5035117;28;20299;-87
2022/01/17 05:00:58;;;;;;;13.07;8.65;;;5.10;74.60;;;4.08;58.86;95448.75;5063030;28;20266;-84
2022/01/17 05:03:26;;;;;;;11.48;8.27;;;5.00;73.70;;;4.08;58.98;95442.75;5041215;28;20641;-87
2022/01/17 05:05:55;;;;;;;12.90;9.15;;;5.00;73.70;;;4.08;59.35;95466.13;5052478;28;20628;-87
2022/01/17 05:08:22;;;;;;;12.55;8.73;;;5.00;73.80;;;4.03;59.14;95456.16;5046277;28;20196;-87
2022/01/17 05:10:53;;;;;;;12.23;8.77;;;5.00;73.90;;;4.07;59.67;95441.94;5036625;28;20233;-86
2022/01/17 05:13:27;;;;;;;14.10;8.80;;;4.90;73.90;;;4.06;58.98;95431.69;5053476;28;20218;-86
2022/01/17 05:16:07;;;;;;;11.30;7.85;;;5.00;73.90;;;4.10;59.37;95449.44;5057308;28;20265;-85
2022/01/17 05:21:02;;;;;;;10.90;8.07;;;5.00;73.80;;;4.11;59.17;95443.31;5052752;28;20414;-86
2022/01/17 05:23:30;;;;;;;12.98;8.45;;;5.00;73.90;;;4.13;58.58;95428.38;5036441;28;20222;-86
2022/01/17 05:25:58;;;;;;;11.57;8.52;;;5.00;73.80;;;4.12;58.76;95413.78;5044746;28;20224;-87
2022/01/17 05:28:25;;;;;;;10.90;7.72;;;5.00;73.70;;;4.17;59.06;95423.75;5045361;28;20201;-86
2022/01/17 05:30:52;;;;;;;11.70;8.75;;;5.10;73.80;;;4.17;59.28;95418.53;5037291;28;20470;-86
2022/01/17 05:33:20;;;;;;;10.32;7.80;;;5.10;73.90;;;4.13;59.34;95412.00;5051548;28;20210;-86
2022/01/17 05:35:48;;;;;;;13.07;9.15;;;5.10;73.90;;;4.13;59.56;95405.03;5032223;28;20241;-86
2022/01/17 05:38:15;;;;;;;11.60;8.77;;;5.00;73.90;;;4.14;59.55;95405.88;5032651;28;20204;-86
2022/01/17 05:40:43;;;;;;;12.40;8.77;;;5.10;74.00;;;4.07;59.66;95374.44;5052412;28;20269;-86
2022/01/17 05:43:11;;;;;;;10.43;7.78;;;5.10;74.00;;;4.12;59.50;95380.03;5061584;28;20234;-87
2022/01/17 05:45:39;;;;;;;12.93;8.63;;;5.00;74.00;;;4.11;59.16;95388.78;5035607;28;20398;-85
2022/01/17 05:48:06;;;;;;;11.93;8.57;;;5.10;74.10;;;4.13;59.24;95365.28;5028544;28;20231;-86
2022/01/17 05:50:33;;;;;;;12.95;8.63;;;5.00;73.90;;;4.11;59.20;95365.44;5031358;28;20216;-86
2022/01/17 05:53:01;;;;;;;13.20;8.73;;;5.10;74.00;;;4.13;58.89;95354.91;5038148;28;20647;-86
2022/01/17 05:55:28;;;;;;;11.05;7.97;;;5.00;73.80;;;4.17;58.88;95361.44;5039958;28;20248;-86
2022/01/17 05:57:58;;;;;;;11.57;7.80;;;5.10;73.80;;;4.14;58.63;95344.38;5016281;28;20236;-86
2022/01/17 06:00:25;;;;;;;11.00;8.15;;;5.10;73.70;;;4.14;58.48;95382.50;5032227;28;20764;-87
2022/01/17 06:02:52;;;;;;;11.55;7.97;;;5.10;73.70;;;4.16;58.87;95339.03;5048964;28;20646;-86
2022/01/17 06:05:20;;;;;;;10.80;7.88;;;5.10;73.70;;;4.25;58.59;95334.78;5021341;28;20254;-87
2022/01/17 06:07:48;;;;;;;11.32;8.30;;;5.10;73.70;;;4.23;58.49;95365.25;5018640;28;20235;-85
2022/01/17 06:10:15;;;;;;;10.93;7.70;;;5.10;73.60;;;4.25;58.47;95384.91;5035447;28;20244;-87
2022/01/17 06:12:43;;;;;;;10.15;7.68;;;5.20;73.60;;;4.28;58.23;95371.63;5035744;28;20261;-86
2022/01/17 06:15:11;;;;;;;11.98;7.97;;;5.10;73.60;;;4.31;58.56;95381.75;5022214;28;20677;-86
2022/01/17 06:17:38;;;;;;;10.02;7.93;;;5.20;73.60;;;4.30;58.54;95387.91;5035473;28;20199;-86
2022/01/17 06:20:06;;;;;;;11.13;7.90;;;5.20;74.50;;;4.36;58.57;95399.53;5035507;28;20243;-85
2022/01/17 06:22:34;;;;;;;10.65;7.50;;;5.20;73.00;;;4.39;58.43;95394.03;5035787;28;20204;-86
2022/01/17 06:25:02;;;;;;;10.80;7.78;;;5.20;73.60;;;4.39;58.42;95388.84;5030904;28;20224;-86
2022/01/17 06:27:30;;;;;;;9.45;6.95;;;5.30;73.60;;;4.40;58.44;95389.66;5065297;28;20227;-86
2022/01/17 06:29:59;;;;;;;9.93;7.35;;;5.30;73.60;;;4.42;58.54;95404.16;5049696;28;20580;-85
2022/01/17 06:32:28;;;;;;;10.55;7.88;;;5.30;73.60;;;4.44;58.55;95402.25;5070025;28;20205;-86
2022/01/17 06:34:56;;;;;;;10.52;7.60;;;5.30;73.60;;;4.49;58.58;95381.00;5039883;28;20270;-86
2022/01/17 06:37:24;;;;;;;8.65;6.97;;;5.30;73.60;;;4.46;58.54;95381.31;5039520;28;20212;-86
2022/01/17 06:39:52;;;;;;;9.15;7.53;;;5.30;73.50;;;4.50;58.78;95393.03;5056029;28;20286;-86
2022/01/17 06:42:21;;;;;;;12.45;7.95;;;5.40;73.60;;;4.52;58.56;95396.31;5055742;28;20242;-84
2022/01/17 06:44:51;;;;;;;10.00;7.57;;;5.40;74.50;;;4.55;58.39;95396.03;5039037;28;20202;-85
2022/01/17 06:47:19;;;;;;;10.98;7.55;;;5.40;73.60;;;4.54;58.50;95385.78;5055298;28;20220;-86
2022/01/17 06:49:47;;;;;;;10.77;7.63;;;5.40;73.50;;;4.58;58.47;95395.75;5055691;28;20196;-86
2022/01/17 06:52:14;;;;;;;11.18;7.80;;;5.40;73.50;;;4.59;58.73;95399.16;5035723;28;20212;-86
2022/01/17 06:54:42;;;;;;;11.05;7.63;;;5.50;73.70;;;4.62;58.53;95401.47;5052056;28;20196;-86
2022/01/17 06:57:11;;;;;;;9.15;7.07;;;5.50;73.60;;;4.61;58.68;95360.88;5068731;28;20205;-86
2022/01/17 06:59:38;;;;;;;12.80;8.02;;;5.50;73.60;;;4.61;58.88;95356.50;5068496;28;20200;-86
2022/01/17 07:02:08;;;;;;;9.73;7.47;;;5.50;73.60;;;4.59;58.72;95345.44;5037046;28;20208;-84
2022/01/17 07:04:35;;;;;;;9.05;6.80;;;5.50;73.70;;;4.64;58.74;95347.59;5055658;28;20328;-86
2022/01/17 07:07:04;;;;;;;11.55;8.02;;;5.50;73.60;;;4.66;58.72;95343.06;5038932;28;20606;-86
2022/01/17 07:09:31;;;;;;;10.05;7.85;;;5.50;73.60;;;4.60;58.74;95335.84;5038875;28;20215;-86
2022/01/17 07:11:59;;;;;;;9.05;7.10;;;5.50;73.70;;;4.59;59.07;95342.00;5035665;28;20704;-87
2022/01/17 07:14:28;;;;;;;9.25;7.20;;;5.60;73.80;;;4.64;58.69;95364.00;5019242;28;20622;-86
2022/01/17 07:16:56;;;;;;;10.13;7.25;;;5.60;73.90;;;4.65;58.76;95399.41;5018973;28;20706;-86
2022/01/17 07:19:25;;;;;;;10.98;7.20;;;5.50;73.70;;;4.64;59.17;95428.94;5019029;28;20647;-86
2022/01/17 07:21:52;;;;;;;9.70;6.82;;;5.50;73.80;;;4.65;58.85;95422.81;5011838;28;20701;-85
2022/01/17 07:24:38;;;;;;;10.02;7.35;;;5.60;73.90;;;4.67;58.94;95432.25;5040855;28;20204;-86
2022/01/17 07:27:06;;;;;;;9.63;6.78;;;5.60;73.90;;;4.74;58.96;95443.72;5039043;28;20223;-85
2022/01/17 07:29:33;;;;;;;9.32;6.82;;;5.60;73.90;;;4.73;58.96;95440.28;5034973;28;20316;-86
2022/01/17 07:32:00;;;;;;;9.18;7.00;;;5.60;73.90;;;4.74;58.60;95451.50;5018862;28;20196;-86
2022/01/17 07:34:28;;;;;;;8.48;6.47;;;5.60;73.80;;;4.69;58.69;95467.50;5018595;28;20197;-87
2022/01/17 07:36:55;;;;;;;9.52;7.00;;;5.60;73.90;;;4.77;58.84;95459.84;5018294;28;20717;-86
2022/01/17 07:39:23;;;;;;;9.77;7.18;;;5.60;73.80;;;4.74;59.04;95444.50;5031572;28;20200;-86
2022/01/17 07:41:50;;;;;;;10.07;6.63;;;5.60;73.80;;;4.78;58.77;95451.03;5053893;28;20657;-86
2022/01/17 07:44:23;;;;;;;7.95;6.20;;;5.60;73.80;;;4.78;58.93;95432.06;5055190;28;20286;-86
2022/01/17 07:46:56;;;;;;;8.75;6.63;;;5.70;73.80;;;4.76;58.65;95408.81;5037808;28;20270;-86
2022/01/17 07:49:25;;;;;;;8.90;6.28;;;5.70;73.80;;;4.83;58.84;95392.66;5038650;28;20216;-86
2022/01/17 07:51:59;;;;;;;9.13;6.10;;;5.70;73.80;;;4.86;58.54;95380.19;5038334;28;20825;-86
2022/01/17 07:54:30;;;;;;;8.32;6.47;;;5.70;73.70;;;4.85;58.44;95375.94;5037660;28;20658;-85
2022/01/17 07:56:59;;;;;;;8.40;5.85;;;5.70;73.60;;;4.87;58.58;95368.81;5017998;28;20591;-87
2022/01/17 07:59:27;;;;;;;6.97;5.20;;;5.70;73.50;;;4.83;58.50;95374.44;5037430;28;20208;-86
2022/01/17 08:01:55;;;;;;;6.43;5.60;;;5.70;73.50;;;4.84;58.12;95417.69;5036673;28;20243;-86
2022/01/17 08:04:23;;;;;;;6.47;5.13;;;5.70;73.60;;;4.86;58.51;95424.38;5038082;28;20253;-86
2022/01/17 08:06:51;;;;;;;6.47;5.20;;;5.70;73.40;;;4.83;58.61;95396.06;5036266;28;20232;-86
2022/01/17 08:09:22;;;;;;;6.30;4.70;;;5.70;73.40;;;4.84;58.07;95415.06;5037573;28;20764;-85
2022/01/17 08:12:08;;;;;;;6.57;5.03;;;5.70;73.40;;;4.87;58.42;95402.63;5033954;28;20192;-86
2022/01/17 08:14:37;;;;;;;4.57;4.13;;;5.70;73.30;;;4.87;58.13;95415.63;5029199;28;20197;-85
2022/01/17 08:17:05;;;;;;;5.13;4.00;;;5.70;73.40;;;4.90;58.33;95430.91;5027812;28;20200;-86
2022/01/17 08:19:33;;;;;;;5.32;4.68;;;5.80;73.50;;;4.91;58.23;95398.75;5036957;28;20200;-85
2022/01/17 08:22:02;;;;;;;6.40;4.50;;;5.80;73.40;;;4.96;57.85;95391.34;5037342;28;20250;-86
2022/01/17 08:24:30;;;;;;;5.25;4.15;;;5.80;73.20;;;5.01;58.10;95380.50;5036975;28;20192;-86
2022/01/17 08:26:59;;;;;;;4.50;3.58;;;5.80;73.10;;;4.97;58.06;95374.78;5035970;28;20224;-86
2022/01/17 08:29:27;;;;;;;4.43;3.75;;;5.80;72.90;;;5.05;58.01;95370.63;5035362;28;20418;-85
2022/01/17 08:31:58;;;;;;;4.47;3.58;;;5.80;73.10;;;5.02;58.28;95352.75;5053298;28;20247;-86
2022/01/17 08:34:26;;;;;;;4.10;3.70;;;5.90;73.00;;;5.05;58.05;95353.25;5040051;28;20646;-86
2022/01/17 08:36:54;;;;;;;4.68;3.75;;;5.90;73.00;;;5.08;58.01;95383.34;5053274;28;20220;-86
2022/01/17 08:39:22;;;;;;;5.10;3.72;;;5.90;73.00;;;5.05;57.57;95371.44;5036346;28;20210;-86
2022/01/17 08:41:49;;;;;;;4.72;3.95;;;5.90;73.00;;;5.08;57.68;95389.34;5038942;28;20224;-85
2022/01/17 08:44:19;;;;;;;4.05;3.45;;;5.90;73.00;;;5.09;57.48;95408.38;5053376;28;20207;-85
2022/01/17 08:46:46;;;;;;;4.07;3.60;;;5.90;73.00;;;5.05;57.79;95420.84;5039476;28;20246;-86
2022/01/17 08:49:16;;;;;;;4.70;3.80;;;6.00;73.10;;;5.09;57.70;95400.56;5025657;28;20724;-86
2022/01/17 08:51:46;;;;;;;4.53;3.28;;;6.00;73.10;;;5.11;57.63;95442.84;5036731;28;20220;-86
2022/01/17 08:54:14;;;;;;;3.40;3.10;;;5.90;73.00;;;5.09;57.45;95393.59;5036817;28;20654;-85
2022/01/17 08:56:42;;;;;;;3.85;3.45;;;5.90;73.00;;;5.13;57.52;95370.72;5020357;28;20318;-85
2022/01/17 08:59:09;;;;;;;3.75;3.10;;;5.90;73.00;;;5.12;57.27;95346.50;5036798;28;20223;-85
2022/01/17 09:01:37;;;;;;;3.90;3.10;;;6.00;73.10;;;5.16;57.22;95362.63;5035456;28;20215;-85
2022/01/17 09:04:05;;;;;;;4.13;3.30;;;6.00;73.10;;;5.18;56.82;95397.09;5037375;28;20192;-85
2022/01/17 09:06:32;;;;;;;4.28;3.17;;;6.10;73.10;;;5.25;57.02;95400.75;5036445;28;20249;-86
2022/01/17 09:09:00;;;;;;;4.32;3.28;;;6.00;73.10;;;5.23;57.01;95400.06;5052547;28;20247;-84
2022/01/17 09:11:28;;;;;;;4.18;3.28;;;6.10;73.10;;;5.33;56.88;95397.41;5052672;28;20246;-84
2022/01/17 09:13:56;;;;;;;4.68;3.25;;;6.20;73.20;;;5.30;56.75;95379.50;5051020;28;20192;-86
2022/01/17 09:16:23;;;;;;;4.47;3.50;;;6.10;73.10;;;5.33;56.60;95381.00;5052673;28;20223;-87
2022/01/17 09:18:51;;;;;;;3.58;3.08;;;6.20;73.20;;;5.39;57.00;95383.81;5036437;28;20196;-86
2022/01/17 09:21:19;;;;;;;4.45;3.30;;;6.20;73.20;;;5.38;56.74;95387.41;5052926;28;20219;-86
2022/01/17 09:23:48;;;;;;;4.10;3.33;;;6.20;73.20;;;5.38;56.57;95381.38;5032706;28;20213;-86
2022/01/17 09:26:15;;;;;;;4.20;3.20;;;6.20;73.20;;;5.39;56.83;95363.00;5049722;28;20220;-87
2022/01/17 09:28:45;;;;;;;3.95;3.30;;;6.20;73.00;;;5.44;56.18;95379.00;5016442;28;20232;-87
2022/01/17 09:31:12;;;;;;;4.20;3.20;;;6.30;72.80;;;5.51;55.95;95361.00;5052252;28;21513;-87
2022/01/17 09:33:40;;;;;;;4.50;3.20;;;6.30;72.80;;;5.54;56.33;95354.69;5025074;28;20237;-87
2022/01/17 09:36:07;;;;;;;4.55;3.63;;;6.30;72.60;;;5.60;56.17;95370.53;5039088;28;20230;-86
2022/01/17 09:38:35;;;;;;;3.90;3.47;;;6.30;72.60;;;5.63;55.67;95358.16;5034800;28;20196;-87
2022/01/17 09:41:04;;;;;;;3.72;3.03;;;6.40;72.40;;;5.65;55.91;95354.47;5031410;28;20224;-86
2022/01/17 09:43:44;;;;;;;4.75;3.75;;;6.30;72.40;;;5.65;55.52;95379.66;5037031;28;20208;-86
2022/01/17 09:46:12;;;;;;;5.05;3.85;;;6.40;72.30;;;5.69;55.62;95365.38;5049319;28;20227;-86
2022/01/17 09:48:46;;;;;;;5.57;3.85;;;6.40;72.20;;;5.66;55.72;95356.09;5036891;28;20243;-86
2022/01/17 09:51:40;;;;;;;5.20;3.80;;;6.40;72.10;;;5.69;55.36;95344.56;5027156;28;20300;-86
2022/01/17 09:54:09;;;;;;;5.85;4.03;;;6.40;72.20;;;5.70;55.51;95349.63;5047573;28;20315;-87
2022/01/17 09:56:38;;;;;;;5.20;3.70;;;6.40;72.00;;;5.69;54.95;95331.53;5048889;28;20221;-85
2022/01/17 09:59:05;;;;;;;6.93;4.60;;;6.50;72.10;;;5.75;55.61;95317.94;5045369;28;20249;-87
2022/01/17 10:01:33;;;;;;;6.35;4.60;;;6.50;72.10;;;5.81;54.91;95316.50;5035915;28;20212;-88
2022/01/17 10:04:06;;;;;;;5.70;4.53;;;6.50;71.90;;;5.85;55.03;95323.06;5031937;28;20237;-86
2022/01/17 10:06:36;;;;;;;5.97;4.57;;;6.60;72.10;;;5.75;54.96;95295.31;5046437;28;20227;-86
2022/01/17 10:09:17;;;;;;;7.55;4.85;;;6.60;71.90;;;5.81;54.98;95338.16;5028095;28;20372;-85
2022/01/17 10:12:12;;;;;;;6.65;4.70;;;6.70;71.90;;;5.84;55.42;95296.19;5031241;28;20224;-86
2022/01/17 10:15:15;;;;;;;7.32;5.25;;;6.60;72.00;;;5.82;55.64;95305.94;5046383;28;20201;-86
2022/01/17 10:17:48;;;;;;;7.50;5.20;;;6.60;71.90;;;5.86;55.41;95293.44;5032111;28;20693;-86
2022/01/17 10:20:18;;;;;;;8.25;5.43;;;6.60;71.80;;;5.81;55.25;95306.94;5029866;28;20219;-85
2022/01/17 10:22:56;;;;;;;8.68;5.68;;;6.70;71.70;;;5.81;55.34;95295.69;5025925;28;20203;-86
2022/01/17 10:28:34;;;;;;;7.53;5.60;;;6.60;71.80;;;5.85;55.33;95294.44;5030662;28;20307;-86
2022/01/17 10:36:50;;;;;;;9.57;5.85;;;6.70;71.50;;;5.79;54.82;95298.44;5051559;28;20255;-86
2022/01/17 10:39:20;;;;;;;8.75;5.93;;;6.60;71.40;;;5.80;55.00;95283.63;5031631;28;20299;-85
2022/01/17 10:41:47;;;;;;;8.60;5.95;;;6.60;71.50;;;5.79;55.19;95263.81;5046262;28;20223;-86
2022/01/17 10:44:38;;;;;;;7.88;6.15;;;6.70;71.50;;;5.79;55.17;95267.22;5014261;28;20286;-86
2022/01/17 10:47:26;;;;;;;8.38;5.97;;;6.60;71.30;;;5.76;55.22;95241.47;5018902;28;20197;-86
2022/01/17 10:50:05;;;;;;;7.72;5.70;;;6.60;71.50;;;5.71;55.33;95249.78;5024046;28;20231;-88
2022/01/17 10:52:39;;;;;;;9.15;5.53;;;6.60;71.50;;;5.62;55.34;95232.47;5033612;28;20541;-87
2022/01/17 10:55:38;;;;;;;8.95;5.57;;;6.50;71.70;;;5.66;55.28;95238.97;5031334;28;20220;-87
2022/01/17 10:58:13;;;;;;;9.00;6.43;;;6.50;72.70;;;5.71;55.30;95241.97;5045357;28;20295;-86
2022/01/17 11:00:44;;;;;;;9.02;5.85;;;6.60;71.80;;;5.73;55.44;95265.22;5050863;28;20302;-86